Terminal Aerodrome Forecast
Issued by NWS Lake Charles, LA

Home | Current Version | Previous Version | Text Only | Print | Product List | Glossary On
Versions: 1 2 3 4 5 6 7 8 9 10 11 12 13 14 15 16 17 18
108
FTUS44 KLCH 281029 AAD
TAFLCH
TAF AMD
KLCH 281029Z 2810/2906 17011KT P6SM FEW012 OVC022
      TEMPO 2810/2814 FEW015 OVC030
     FM281400 16015G23KT P6SM OVC025
     FM282000 18018G26KT P6SM OVC025=

USA.gov is the U.S. government's official web portal to all federal, state and local government web resources and services.